Time,TemperatureF,DewpointF,PressureIn,WindDirection,WindDirectionDegrees,WindSpeedMPH,WindSpeedGustMPH,Humidity,HourlyPrecipIn,Conditions,Clouds,dailyrainin,SoftwareType,DateUTC
2013-06-06 00:03:00,67.0,58.0,29.90,ESE,102,5.0,15.0,74,0.00,,,0.12,,2013-06-06 04:03:00,
2013-06-06 00:13:00,67.0,58.0,29.90,ESE,102,5.0,15.0,74,0.00,,,0.12,,2013-06-06 04:13:00,
2013-06-06 00:23:00,68.0,57.0,29.90,ENE,76,3.0,6.0,69,0.00,,,0.12,,2013-06-06 04:23:00,
2013-06-06 00:33:00,68.0,57.0,29.90,ESE,120,5.0,9.0,69,0.00,,,0.12,,2013-06-06 04:33:00,
2013-06-06 00:42:00,68.0,57.0,29.90,East,100,6.0,9.0,69,0.00,,,0.12,,2013-06-06 04:42:00,
2013-06-06 00:53:00,68.0,57.0,29.90,East,100,6.0,9.0,69,0.00,,,0.12,,2013-06-06 04:53:00,
2013-06-06 01:02:00,68.0,57.0,29.90,East,83,5.0,7.0,68,0.00,,,0.12,,2013-06-06 05:02:00,
2013-06-06 01:12:00,68.0,57.0,29.90,East,83,5.0,7.0,68,0.00,,,0.12,,2013-06-06 05:12:00,
2013-06-06 01:22:00,67.0,56.0,29.90,ENE,64,6.0,7.0,69,0.00,,,0.12,,2013-06-06 05:22:00,
2013-06-06 01:32:00,67.0,57.0,29.90,SE,136,1.0,5.0,70,0.00,,,0.12,,2013-06-06 05:32:00,
2013-06-06 01:42:00,67.0,57.0,29.90,SE,136,1.0,5.0,70,0.00,,,0.12,,2013-06-06 05:42:00,
2013-06-06 01:52:00,66.0,56.0,29.89,ENE,70,3.0,6.0,71,0.00,,,0.12,,2013-06-06 05:52:00,
2013-06-06 02:02:00,66.0,56.0,29.88,East,90,5.0,8.0,71,0.00,,,0.12,,2013-06-06 06:02:00,
2013-06-06 02:12:00,66.0,56.0,29.88,East,90,5.0,8.0,71,0.00,,,0.12,,2013-06-06 06:12:00,
2013-06-06 02:22:00,65.0,56.0,29.88,ENE,69,5.0,6.0,72,0.00,,,0.12,,2013-06-06 06:22:00,
2013-06-06 02:32:00,65.0,55.0,29.88,ENE,72,2.0,9.0,71,0.00,,,0.12,,2013-06-06 06:32:00,
2013-06-06 02:42:00,65.0,55.0,29.88,ENE,72,2.0,9.0,71,0.00,,,0.12,,2013-06-06 06:42:00,
2013-06-06 02:52:00,65.0,55.0,29.87,East,85,7.0,13.0,69,0.08,,,0.20,,2013-06-06 06:52:00,
2013-06-06 03:02:00,64.0,53.0,29.87,NE,52,0.0,0.0,68,0.15,,,0.27,,2013-06-06 07:02:00,
2013-06-06 03:12:00,64.0,53.0,29.87,NE,52,0.0,0.0,68,0.15,,,0.27,,2013-06-06 07:12:00,
2013-06-06 03:22:00,64.0,53.0,29.87,ENE,70,6.0,9.0,67,0.16,,,0.28,,2013-06-06 07:22:00,
2013-06-06 03:32:00,64.0,52.0,29.86,East,96,5.0,9.0,66,0.16,,,0.28,,2013-06-06 07:32:00,
2013-06-06 03:42:00,64.0,52.0,29.86,East,96,5.0,9.0,66,0.16,,,0.28,,2013-06-06 07:42:00,
2013-06-06 03:52:00,63.0,51.0,29.86,East,84,2.0,7.0,66,0.08,,,0.28,,2013-06-06 07:52:00,
2013-06-06 04:02:00,63.0,52.0,29.85,ENE,74,2.0,8.0,67,0.01,,,0.28,,2013-06-06 08:02:00,
2013-06-06 04:12:00,63.0,52.0,29.85,ENE,74,2.0,8.0,67,0.01,,,0.28,,2013-06-06 08:12:00,
2013-06-06 04:22:00,63.0,51.0,29.85,NE,52,2.0,0.0,66,0.00,,,0.28,,2013-06-06 08:22:00,
2013-06-06 04:32:00,62.0,51.0,29.85,ENE,74,2.0,7.0,67,0.00,,,0.28,,2013-06-06 08:32:00,
2013-06-06 04:42:00,62.0,51.0,29.85,ENE,73,0.0,0.0,67,0.00,,,0.28,,2013-06-06 08:42:00,
2013-06-06 04:52:00,62.0,51.0,29.85,ENE,73,0.0,0.0,67,0.00,,,0.28,,2013-06-06 08:52:00,
2013-06-06 05:02:00,62.0,51.0,29.84,ENE,64,3.0,7.0,68,0.00,,,0.28,,2013-06-06 09:02:00,
2013-06-06 05:12:00,62.0,51.0,29.84,ENE,64,3.0,7.0,68,0.00,,,0.28,,2013-06-06 09:12:00,
2013-06-06 05:22:00,62.0,51.0,29.85,East,90,6.0,9.0,68,0.00,,,0.28,,2013-06-06 09:22:00,
2013-06-06 05:33:00,62.0,52.0,29.85,East,82,1.0,0.0,70,0.00,,,0.28,,2013-06-06 09:33:00,
2013-06-06 05:43:00,62.0,52.0,29.85,East,82,1.0,0.0,70,0.00,,,0.28,,2013-06-06 09:43:00,
2013-06-06 05:53:00,62.0,53.0,29.84,East,86,1.0,9.0,72,0.00,,,0.28,,2013-06-06 09:53:00,
2013-06-06 06:03:00,61.0,52.0,29.84,ENE,73,2.0,9.0,72,0.00,,,0.28,,2013-06-06 10:03:00,
2013-06-06 06:12:00,61.0,52.0,29.84,ENE,66,6.0,8.0,73,0.00,,,0.28,,2013-06-06 10:12:00,
2013-06-06 06:23:00,61.0,52.0,29.84,ENE,66,6.0,8.0,73,0.00,,,0.28,,2013-06-06 10:23:00,
2013-06-06 06:33:00,61.0,52.0,29.84,ENE,68,6.0,9.0,73,0.00,,,0.28,,2013-06-06 10:33:00,
2013-06-06 06:42:00,61.0,53.0,29.84,ENE,77,6.0,9.0,74,0.00,,,0.28,,2013-06-06 10:42:00,
2013-06-06 06:53:00,61.0,53.0,29.84,ENE,77,6.0,9.0,74,0.00,,,0.28,,2013-06-06 10:53:00,
2013-06-06 07:02:00,61.0,53.0,29.85,ENE,65,0.0,0.0,75,0.00,,,0.28,,2013-06-06 11:02:00,
2013-06-06 07:12:00,61.0,53.0,29.85,ENE,65,0.0,0.0,75,0.00,,,0.28,,2013-06-06 11:12:00,
2013-06-06 07:22:00,61.0,54.0,29.84,NE,41,0.0,0.0,77,0.00,,,0.28,,2013-06-06 11:22:00,
2013-06-06 07:32:00,61.0,54.0,29.84,NE,54,5.0,7.0,78,0.00,,,0.28,,2013-06-06 11:32:00,
2013-06-06 07:42:00,61.0,54.0,29.84,NE,54,5.0,7.0,78,0.00,,,0.28,,2013-06-06 11:42:00,
2013-06-06 07:52:00,61.0,54.0,29.84,NE,37,0.0,0.0,79,0.00,,,0.28,,2013-06-06 11:52:00,
2013-06-06 08:02:00,61.0,54.0,29.85,NE,45,1.0,7.0,78,0.00,,,0.28,,2013-06-06 12:02:00,
2013-06-06 08:12:00,61.0,54.0,29.85,NE,45,1.0,7.0,78,0.00,,,0.28,,2013-06-06 12:12:00,
2013-06-06 08:22:00,61.0,55.0,29.85,NE,49,1.0,8.0,80,0.00,,,0.28,,2013-06-06 12:22:00,
2013-06-06 08:33:00,60.0,54.0,29.85,ENE,72,5.0,9.0,80,0.00,,,0.28,,2013-06-06 12:33:00,
2013-06-06 08:42:00,61.0,55.0,29.85,ENE,63,7.0,9.0,80,0.00,,,0.28,,2013-06-06 12:42:00,
2013-06-06 08:53:00,61.0,55.0,29.85,ENE,63,7.0,9.0,80,0.00,,,0.28,,2013-06-06 12:53:00,
2013-06-06 09:03:00,63.0,56.0,29.85,ENE,62,8.0,12.0,78,0.00,,,0.28,,2013-06-06 13:03:00,
2013-06-06 09:12:00,63.0,55.0,29.85,ENE,76,9.0,10.0,76,0.00,,,0.28,,2013-06-06 13:12:00,
2013-06-06 09:22:00,63.0,55.0,29.85,ENE,76,9.0,10.0,76,0.00,,,0.28,,2013-06-06 13:22:00,
2013-06-06 09:32:00,63.0,56.0,29.85,NE,52,2.0,8.0,77,0.00,,,0.28,,2013-06-06 13:32:00,
2013-06-06 09:42:00,63.0,56.0,29.85,NE,52,2.0,8.0,77,0.00,,,0.28,,2013-06-06 13:42:00,
2013-06-06 09:53:00,63.0,56.0,29.86,ENE,72,8.0,9.0,78,0.00,,,0.28,,2013-06-06 13:53:00,
2013-06-06 10:03:00,64.0,56.0,29.86,NE,54,6.0,9.0,76,0.00,,,0.28,,2013-06-06 14:03:00,
2013-06-06 10:12:00,64.0,56.0,29.86,NE,54,6.0,9.0,76,0.00,,,0.28,,2013-06-06 14:12:00,
2013-06-06 10:22:00,64.0,56.0,29.86,NE,54,6.0,9.0,76,0.00,,,0.28,,2013-06-06 14:22:00,
2013-06-06 10:33:00,66.0,57.0,29.86,ENE,73,6.0,7.0,74,0.00,,,0.28,,2013-06-06 14:33:00,
2013-06-06 10:43:00,66.0,57.0,29.86,ENE,73,6.0,7.0,74,0.00,,,0.28,,2013-06-06 14:43:00,
2013-06-06 10:53:00,67.0,58.0,29.86,ENE,64,5.0,8.0,73,0.00,,,0.28,,2013-06-06 14:53:00,
2013-06-06 11:03:00,68.0,59.0,29.85,ENE,60,10.0,13.0,72,0.00,,,0.28,,2013-06-06 15:03:00,
2013-06-06 11:12:00,68.0,59.0,29.85,ENE,60,10.0,13.0,72,0.00,,,0.28,,2013-06-06 15:12:00,
2013-06-06 11:23:00,68.0,57.0,29.84,ENE,64,7.0,14.0,69,0.00,,,0.28,,2013-06-06 15:23:00,
2013-06-06 11:33:00,68.0,58.0,29.84,East,82,6.0,10.0,71,0.00,,,0.28,,2013-06-06 15:33:00,
2013-06-06 11:43:00,68.0,58.0,29.84,East,82,6.0,10.0,71,0.00,,,0.28,,2013-06-06 15:43:00,
2013-06-06 11:53:00,70.0,59.0,29.84,ENE,61,9.0,14.0,68,0.00,,,0.28,,2013-06-06 15:53:00,
2013-06-06 12:03:00,70.0,59.0,29.85,ENE,66,5.0,9.0,69,0.00,,,0.28,,2013-06-06 16:03:00,
2013-06-06 12:12:00,70.0,59.0,29.85,ENE,66,5.0,9.0,69,0.00,,,0.28,,2013-06-06 16:12:00,
2013-06-06 12:23:00,71.0,59.0,29.85,ENE,68,0.0,0.0,66,0.00,,,0.28,,2013-06-06 16:23:00,
2013-06-06 12:33:00,72.0,59.0,29.85,ENE,73,6.0,10.0,64,0.00,,,0.28,,2013-06-06 16:33:00,
2013-06-06 12:43:00,72.0,59.0,29.85,ENE,73,6.0,10.0,64,0.00,,,0.28,,2013-06-06 16:43:00,
2013-06-06 12:53:00,72.0,60.0,29.85,East,89,3.0,6.0,66,0.00,,,0.28,,2013-06-06 16:53:00,
2013-06-06 13:03:00,73.0,61.0,29.85,SE,127,0.0,0.0,65,0.00,,,0.28,,2013-06-06 17:03:00,
2013-06-06 13:13:00,73.0,61.0,29.85,NNE,25,5.0,8.0,65,0.00,,,0.28,,2013-06-06 17:13:00,
2013-06-06 13:22:00,73.0,61.0,29.85,NNE,25,5.0,8.0,65,0.00,,,0.28,,2013-06-06 17:22:00,
2013-06-06 13:32:00,73.0,61.0,29.84,ENE,71,6.0,12.0,66,0.00,,,0.28,,2013-06-06 17:32:00,
2013-06-06 13:42:00,73.0,61.0,29.84,ENE,71,6.0,12.0,66,0.00,,,0.28,,2013-06-06 17:42:00,
2013-06-06 13:53:00,72.0,60.0,29.84,NE,34,8.0,10.0,65,0.00,,,0.28,,2013-06-06 17:53:00,
2013-06-06 14:03:00,72.0,60.0,29.84,East,93,3.0,10.0,66,0.00,,,0.28,,2013-06-06 18:03:00,
2013-06-06 14:13:00,72.0,60.0,29.84,East,93,3.0,10.0,66,0.00,,,0.28,,2013-06-06 18:13:00,
2013-06-06 14:23:00,73.0,61.0,29.83,ENE,60,7.0,8.0,65,0.00,,,0.28,,2013-06-06 18:23:00,
2013-06-06 14:33:00,73.0,61.0,29.83,NE,54,3.0,6.0,66,0.00,,,0.28,,2013-06-06 18:33:00,
2013-06-06 14:43:00,73.0,61.0,29.83,NE,54,3.0,6.0,66,0.00,,,0.28,,2013-06-06 18:43:00,
2013-06-06 14:53:00,74.0,61.0,29.83,ENE,59,1.0,7.0,64,0.00,,,0.28,,2013-06-06 18:53:00,
2013-06-06 15:03:00,74.0,61.0,29.83,NE,55,7.0,9.0,64,0.00,,,0.28,,2013-06-06 19:03:00,
2013-06-06 15:12:00,74.0,60.0,29.83,ENE,59,7.0,7.0,61,0.00,,,0.28,,2013-06-06 19:12:00,
2013-06-06 15:23:00,74.0,60.0,29.83,ENE,59,7.0,7.0,61,0.00,,,0.28,,2013-06-06 19:23:00,
2013-06-06 15:33:00,74.0,61.0,29.82,NNE,29,6.0,10.0,63,0.00,,,0.28,,2013-06-06 19:33:00,
2013-06-06 15:43:00,74.0,61.0,29.82,NNE,29,6.0,10.0,63,0.00,,,0.28,,2013-06-06 19:43:00,
2013-06-06 15:53:00,75.0,62.0,29.82,NNW,334,3.0,10.0,64,0.00,,,0.28,,2013-06-06 19:53:00,
2013-06-06 16:03:00,75.0,61.0,29.82,NE,48,1.0,0.0,62,0.00,,,0.28,,2013-06-06 20:03:00,
2013-06-06 16:13:00,75.0,61.0,29.82,NE,48,1.0,0.0,62,0.00,,,0.28,,2013-06-06 20:13:00,
2013-06-06 16:23:00,75.0,61.0,29.82,ENE,74,7.0,8.0,62,0.00,,,0.28,,2013-06-06 20:23:00,
2013-06-06 16:33:00,75.0,60.0,29.82,East,83,5.0,6.0,60,0.00,,,0.28,,2013-06-06 20:33:00,
2013-06-06 16:42:00,75.0,60.0,29.82,East,83,5.0,6.0,60,0.00,,,0.28,,2013-06-06 20:42:00,
2013-06-06 16:53:00,76.0,61.0,29.82,ENE,64,7.0,10.0,59,0.00,,,0.28,,2013-06-06 20:53:00,
2013-06-06 17:03:00,76.0,60.0,29.82,ESE,106,0.0,0.0,58,0.00,,,0.28,,2013-06-06 21:03:00,
2013-06-06 17:12:00,76.0,60.0,29.82,ESE,106,0.0,0.0,58,0.00,,,0.28,,2013-06-06 21:12:00,
2013-06-06 17:22:00,76.0,60.0,29.82,NE,55,0.0,0.0,57,0.00,,,0.28,,2013-06-06 21:22:00,
2013-06-06 17:33:00,76.0,60.0,29.81,ENE,66,3.0,9.0,57,0.00,,,0.28,,2013-06-06 21:33:00,
2013-06-06 17:43:00,76.0,60.0,29.81,ENE,66,3.0,9.0,57,0.00,,,0.28,,2013-06-06 21:43:00,
2013-06-06 17:53:00,76.0,58.0,29.81,ENE,73,0.0,0.0,54,0.00,,,0.23,,2013-06-06 21:53:00,
2013-06-06 18:03:00,76.0,59.0,29.81,NE,46,7.0,8.0,56,0.00,,,0.18,,2013-06-06 22:03:00,
2013-06-06 18:13:00,76.0,59.0,29.81,NE,46,7.0,8.0,56,0.00,,,0.18,,2013-06-06 22:13:00,
2013-06-06 18:23:00,76.0,58.0,29.81,NE,38,2.0,8.0,54,0.00,,,0.16,,2013-06-06 22:23:00,
2013-06-06 18:33:00,76.0,56.0,29.82,ESE,109,0.0,0.0,50,0.00,,,0.16,,2013-06-06 22:33:00,
2013-06-06 18:43:00,76.0,56.0,29.82,ESE,109,0.0,0.0,50,0.00,,,0.16,,2013-06-06 22:43:00,
2013-06-06 18:53:00,76.0,58.0,29.81,ENE,73,2.0,7.0,53,0.00,,,0.16,,2013-06-06 22:53:00,
2013-06-06 19:02:00,76.0,57.0,29.81,East,90,5.0,7.0,52,0.00,,,0.16,,2013-06-06 23:02:00,
2013-06-06 19:12:00,76.0,57.0,29.81,East,90,5.0,7.0,52,0.00,,,0.16,,2013-06-06 23:12:00,
2013-06-06 19:22:00,76.0,57.0,29.81,East,90,5.0,8.0,52,0.00,,,0.16,,2013-06-06 23:22:00,
2013-06-06 19:33:00,76.0,57.0,29.81,NE,38,2.0,0.0,51,0.00,,,0.16,,2013-06-06 23:33:00,
2013-06-06 19:42:00,76.0,57.0,29.81,NE,38,2.0,0.0,51,0.00,,,0.16,,2013-06-06 23:42:00,
2013-06-06 19:52:00,76.0,56.0,29.81,NE,38,2.0,7.0,50,0.00,,,0.16,,2013-06-06 23:52:00,
2013-06-06 20:02:00,76.0,56.0,29.81,NE,37,0.0,0.0,50,0.00,,,0.16,,2013-06-07 00:02:00,
2013-06-06 20:12:00,76.0,56.0,29.81,NE,37,0.0,0.0,50,0.00,,,0.16,,2013-06-07 00:12:00,
2013-06-06 20:22:00,75.0,57.0,29.82,NE,37,0.0,0.0,53,0.00,,,0.16,,2013-06-07 00:22:00,
2013-06-06 20:32:00,75.0,59.0,29.82,NE,47,7.0,10.0,57,0.00,,,0.16,,2013-06-07 00:32:00,
2013-06-06 20:42:00,75.0,59.0,29.82,NE,47,7.0,10.0,57,0.00,,,0.16,,2013-06-07 00:42:00,
2013-06-06 20:52:00,73.0,58.0,29.81,NE,49,7.0,10.0,60,0.00,,,0.16,,2013-06-07 00:52:00,
2013-06-06 21:02:00,73.0,58.0,29.81,NE,49,7.0,10.0,60,0.00,,,0.16,,2013-06-07 01:02:00,
2013-06-06 21:12:00,73.0,58.0,29.81,NE,49,7.0,10.0,60,0.00,,,0.16,,2013-06-07 01:12:00,
2013-06-06 21:22:00,72.0,59.0,29.82,NE,36,6.0,10.0,63,0.00,,,0.16,,2013-06-07 01:22:00,
2013-06-06 21:32:00,71.0,58.0,29.82,NE,50,7.0,10.0,64,0.00,,,0.16,,2013-06-07 01:32:00,
2013-06-06 21:42:00,71.0,58.0,29.82,NE,50,7.0,10.0,64,0.00,,,0.16,,2013-06-07 01:42:00,
2013-06-06 21:52:00,70.0,58.0,29.83,NE,36,6.0,12.0,66,0.00,,,0.16,,2013-06-07 01:52:00,
2013-06-06 22:02:00,69.0,58.0,29.83,NNE,14,0.0,0.0,67,0.00,,,0.16,,2013-06-07 02:02:00,
2013-06-06 22:12:00,69.0,58.0,29.83,NNE,14,0.0,0.0,67,0.00,,,0.16,,2013-06-07 02:12:00,
2013-06-06 22:22:00,69.0,59.0,29.83,NE,51,5.0,6.0,70,0.00,,,0.16,,2013-06-07 02:22:00,
2013-06-06 22:32:00,68.0,58.0,29.84,NNE,26,1.0,6.0,71,0.00,,,0.16,,2013-06-07 02:32:00,
2013-06-06 22:42:00,68.0,58.0,29.84,NNE,26,1.0,6.0,71,0.00,,,0.16,,2013-06-07 02:42:00,
2013-06-06 22:52:00,68.0,59.0,29.85,NE,34,1.0,5.0,72,0.00,,,0.16,,2013-06-07 02:52:00,
2013-06-06 23:02:00,67.0,58.0,29.85,NE,34,0.0,0.0,73,0.00,,,0.16,,2013-06-07 03:02:00,
2013-06-06 23:12:00,67.0,58.0,29.85,NE,34,0.0,0.0,73,0.00,,,0.16,,2013-06-07 03:12:00,
2013-06-06 23:22:00,66.0,58.0,29.85,NNE,20,5.0,7.0,75,0.00,,,0.16,,2013-06-07 03:22:00,
2013-06-06 23:33:00,66.0,58.0,29.86,NNE,18,0.0,0.0,76,0.00,,,0.16,,2013-06-07 03:33:00,
2013-06-06 23:43:00,66.0,58.0,29.86,NNE,18,0.0,0.0,76,0.00,,,0.16,,2013-06-07 03:43:00,
2013-06-06 23:53:00,66.0,59.0,29.86,NNE,17,3.0,6.0,79,0.00,,,0.16,,2013-06-07 03:53:00,